sensor_id;sensor_type;location;lat;lon;timestamp;P1;durP1;ratioP1;P2;durP2;ratioP2
45728;SDS011;31439;53.512;10.206;2022-12-18T00:01:33;20.13;;;11.38;;
45728;SDS011;31439;53.512;10.206;2022-12-18T00:04:00;20.08;;;11.57;;
45728;SDS011;31439;53.512;10.206;2022-12-18T00:06:28;22.42;;;12.70;;
45728;SDS011;31439;53.512;10.206;2022-12-18T00:08:54;19.85;;;11.73;;
45728;SDS011;31439;53.512;10.206;2022-12-18T00:11:22;22.10;;;12.18;;
45728;SDS011;31439;53.512;10.206;2022-12-18T00:13:48;20.08;;;12.07;;
45728;SDS011;31439;53.512;10.206;2022-12-18T00:16:15;19.20;;;11.48;;
45728;SDS011;31439;53.512;10.206;2022-12-18T00:18:43;23.35;;;11.75;;
45728;SDS011;31439;53.512;10.206;2022-12-18T00:21:10;19.10;;;11.57;;
45728;SDS011;31439;53.512;10.206;2022-12-18T00:23:37;22.65;;;11.68;;
45728;SDS011;31439;53.512;10.206;2022-12-18T00:26:04;20.45;;;11.75;;
45728;SDS011;31439;53.512;10.206;2022-12-18T00:28:30;20.40;;;11.75;;
45728;SDS011;31439;53.512;10.206;2022-12-18T00:31:03;21.30;;;11.65;;
45728;SDS011;31439;53.512;10.206;2022-12-18T00:33:30;21.20;;;11.60;;
45728;SDS011;31439;53.512;10.206;2022-12-18T00:36:03;21.55;;;12.07;;
45728;SDS011;31439;53.512;10.206;2022-12-18T00:38:29;22.35;;;11.90;;
45728;SDS011;31439;53.512;10.206;2022-12-18T00:40:55;18.52;;;11.35;;
45728;SDS011;31439;53.512;10.206;2022-12-18T00:43:21;20.08;;;11.85;;
45728;SDS011;31439;53.512;10.206;2022-12-18T00:45:47;19.08;;;11.05;;
45728;SDS011;31439;53.512;10.206;2022-12-18T00:48:13;17.42;;;10.75;;
45728;SDS011;31439;53.512;10.206;2022-12-18T00:50:39;18.98;;;11.70;;
45728;SDS011;31439;53.512;10.206;2022-12-18T00:53:05;23.08;;;12.10;;
45728;SDS011;31439;53.512;10.206;2022-12-18T00:55:34;16.52;;;10.68;;
45728;SDS011;31439;53.512;10.206;2022-12-18T00:58:00;20.80;;;10.98;;
45728;SDS011;31439;53.512;10.206;2022-12-18T01:00:26;19.27;;;11.18;;
45728;SDS011;31439;53.512;10.206;2022-12-18T01:02:52;21.98;;;11.73;;
45728;SDS011;31439;53.512;10.206;2022-12-18T01:05:18;20.83;;;11.05;;
45728;SDS011;31439;53.512;10.206;2022-12-18T01:07:44;21.65;;;10.98;;
45728;SDS011;31439;53.512;10.206;2022-12-18T01:10:11;20.45;;;11.38;;
45728;SDS011;31439;53.512;10.206;2022-12-18T01:12:37;21.55;;;12.07;;
45728;SDS011;31439;53.512;10.206;2022-12-18T01:15:04;19.70;;;11.05;;
45728;SDS011;31439;53.512;10.206;2022-12-18T01:17:31;19.00;;;10.50;;
45728;SDS011;31439;53.512;10.206;2022-12-18T01:19:57;20.65;;;10.95;;
45728;SDS011;31439;53.512;10.206;2022-12-18T01:22:23;19.23;;;11.13;;
45728;SDS011;31439;53.512;10.206;2022-12-18T01:24:49;18.67;;;10.45;;
45728;SDS011;31439;53.512;10.206;2022-12-18T01:27:15;18.13;;;10.82;;
45728;SDS011;31439;53.512;10.206;2022-12-18T01:29:41;20.17;;;11.52;;
45728;SDS011;31439;53.512;10.206;2022-12-18T01:32:07;18.30;;;10.32;;
45728;SDS011;31439;53.512;10.206;2022-12-18T01:34:35;17.58;;;10.40;;
45728;SDS011;31439;53.512;10.206;2022-12-18T01:37:02;15.82;;;9.82;;
45728;SDS011;31439;53.512;10.206;2022-12-18T01:39:28;17.15;;;10.32;;
45728;SDS011;31439;53.512;10.206;2022-12-18T01:41:54;19.90;;;9.93;;
45728;SDS011;31439;53.512;10.206;2022-12-18T01:47:21;17.33;;;10.05;;
45728;SDS011;31439;53.512;10.206;2022-12-18T01:49:49;17.15;;;9.95;;
45728;SDS011;31439;53.512;10.206;2022-12-18T01:52:17;17.63;;;9.52;;
45728;SDS011;31439;53.512;10.206;2022-12-18T01:54:44;18.13;;;10.23;;
45728;SDS011;31439;53.512;10.206;2022-12-18T01:57:11;18.50;;;9.77;;
45728;SDS011;31439;53.512;10.206;2022-12-18T01:59:37;15.27;;;9.95;;
45728;SDS011;31439;53.512;10.206;2022-12-18T02:02:04;17.13;;;9.88;;
45728;SDS011;31439;53.512;10.206;2022-12-18T02:04:31;19.10;;;10.30;;
45728;SDS011;31439;53.512;10.206;2022-12-18T02:07:07;23.40;;;9.55;;
45728;SDS011;31439;53.512;10.206;2022-12-18T02:09:36;15.07;;;9.70;;
45728;SDS011;31439;53.512;10.206;2022-12-18T02:17:18;19.48;;;10.90;;
45728;SDS011;31439;53.512;10.206;2022-12-18T02:22:26;17.33;;;9.98;;
45728;SDS011;31439;53.512;10.206;2022-12-18T02:24:59;19.55;;;10.27;;
45728;SDS011;31439;53.512;10.206;2022-12-18T02:27:27;21.80;;;10.57;;
45728;SDS011;31439;53.512;10.206;2022-12-18T02:29:55;17.92;;;10.02;;
45728;SDS011;31439;53.512;10.206;2022-12-18T02:32:24;14.38;;;9.38;;
45728;SDS011;31439;53.512;10.206;2022-12-18T02:34:51;17.20;;;10.73;;
45728;SDS011;31439;53.512;10.206;2022-12-18T02:37:19;16.85;;;9.77;;
45728;SDS011;31439;53.512;10.206;2022-12-18T02:39:47;17.48;;;10.13;;
45728;SDS011;31439;53.512;10.206;2022-12-18T02:42:14;18.00;;;9.57;;
45728;SDS011;31439;53.512;10.206;2022-12-18T02:44:42;18.17;;;9.93;;
45728;SDS011;31439;53.512;10.206;2022-12-18T02:47:09;18.00;;;9.98;;
45728;SDS011;31439;53.512;10.206;2022-12-18T02:49:44;16.08;;;9.68;;
45728;SDS011;31439;53.512;10.206;2022-12-18T02:57:34;18.48;;;9.73;;
45728;SDS011;31439;53.512;10.206;2022-12-18T03:00:02;17.30;;;9.23;;
45728;SDS011;31439;53.512;10.206;2022-12-18T03:02:30;18.90;;;9.80;;
45728;SDS011;31439;53.512;10.206;2022-12-18T03:07:33;16.98;;;9.65;;
45728;SDS011;31439;53.512;10.206;2022-12-18T03:10:01;15.25;;;8.50;;
45728;SDS011;31439;53.512;10.206;2022-12-18T03:12:31;17.17;;;9.40;;
45728;SDS011;31439;53.512;10.206;2022-12-18T03:17:31;17.23;;;9.00;;
45728;SDS011;31439;53.512;10.206;2022-12-18T03:19:58;19.77;;;9.60;;
45728;SDS011;31439;53.512;10.206;2022-12-18T03:22:27;17.38;;;9.25;;
45728;SDS011;31439;53.512;10.206;2022-12-18T03:24:54;18.17;;;10.38;;
45728;SDS011;31439;53.512;10.206;2022-12-18T03:27:22;17.95;;;10.00;;
45728;SDS011;31439;53.512;10.206;2022-12-18T03:29:55;18.48;;;10.25;;
45728;SDS011;31439;53.512;10.206;2022-12-18T03:32:25;19.80;;;9.50;;
45728;SDS011;31439;53.512;10.206;2022-12-18T03:34:53;17.13;;;10.30;;
45728;SDS011;31439;53.512;10.206;2022-12-18T03:37:20;16.88;;;9.45;;
45728;SDS011;31439;53.512;10.206;2022-12-18T03:39:46;17.85;;;9.82;;
45728;SDS011;31439;53.512;10.206;2022-12-18T03:47:19;15.65;;;9.57;;
45728;SDS011;31439;53.512;10.206;2022-12-18T03:52:25;18.55;;;10.00;;
45728;SDS011;31439;53.512;10.206;2022-12-18T03:54:53;16.25;;;9.75;;
45728;SDS011;31439;53.512;10.206;2022-12-18T03:57:20;19.05;;;9.95;;
45728;SDS011;31439;53.512;10.206;2022-12-18T03:59:47;19.88;;;10.30;;
45728;SDS011;31439;53.512;10.206;2022-12-18T04:02:15;19.55;;;9.93;;
45728;SDS011;31439;53.512;10.206;2022-12-18T04:04:42;19.73;;;9.88;;
45728;SDS011;31439;53.512;10.206;2022-12-18T04:07:08;17.30;;;10.02;;
45728;SDS011;31439;53.512;10.206;2022-12-18T04:09:35;16.63;;;10.07;;
45728;SDS011;31439;53.512;10.206;2022-12-18T04:12:02;20.55;;;10.50;;
45728;SDS011;31439;53.512;10.206;2022-12-18T04:14:28;18.38;;;10.75;;
45728;SDS011;31439;53.512;10.206;2022-12-18T04:16:54;17.15;;;9.90;;
45728;SDS011;31439;53.512;10.206;2022-12-18T04:19:20;18.52;;;9.80;;
45728;SDS011;31439;53.512;10.206;2022-12-18T04:21:46;19.67;;;10.70;;
45728;SDS011;31439;53.512;10.206;2022-12-18T04:24:12;16.55;;;9.45;;
45728;SDS011;31439;53.512;10.206;2022-12-18T04:26:38;18.25;;;10.20;;
45728;SDS011;31439;53.512;10.206;2022-12-18T04:29:04;19.02;;;10.75;;
45728;SDS011;31439;53.512;10.206;2022-12-18T04:31:30;19.20;;;10.95;;
45728;SDS011;31439;53.512;10.206;2022-12-18T04:33:56;19.33;;;10.27;;
45728;SDS011;31439;53.512;10.206;2022-12-18T04:36:22;20.58;;;10.55;;
45728;SDS011;31439;53.512;10.206;2022-12-18T04:38:50;21.42;;;11.60;;
45728;SDS011;31439;53.512;10.206;2022-12-18T04:41:16;20.80;;;11.43;;
45728;SDS011;31439;53.512;10.206;2022-12-18T04:43:42;22.13;;;11.23;;
45728;SDS011;31439;53.512;10.206;2022-12-18T04:46:08;22.60;;;11.73;;
45728;SDS011;31439;53.512;10.206;2022-12-18T04:48:35;22.33;;;12.25;;
45728;SDS011;31439;53.512;10.206;2022-12-18T04:51:01;22.60;;;12.20;;
45728;SDS011;31439;53.512;10.206;2022-12-18T04:53:27;18.13;;;10.73;;
45728;SDS011;31439;53.512;10.206;2022-12-18T04:56:10;20.20;;;11.65;;
45728;SDS011;31439;53.512;10.206;2022-12-18T04:58:36;18.08;;;11.15;;
45728;SDS011;31439;53.512;10.206;2022-12-18T05:01:02;20.48;;;12.38;;
45728;SDS011;31439;53.512;10.206;2022-12-18T05:03:29;23.98;;;11.88;;
45728;SDS011;31439;53.512;10.206;2022-12-18T05:05:55;21.40;;;12.07;;
45728;SDS011;31439;53.512;10.206;2022-12-18T05:08:21;19.90;;;11.57;;
45728;SDS011;31439;53.512;10.206;2022-12-18T05:10:47;21.48;;;11.77;;
45728;SDS011;31439;53.512;10.206;2022-12-18T05:13:13;23.52;;;12.13;;
45728;SDS011;31439;53.512;10.206;2022-12-18T05:15:39;20.92;;;12.43;;
45728;SDS011;31439;53.512;10.206;2022-12-18T05:18:06;20.98;;;12.35;;
45728;SDS011;31439;53.512;10.206;2022-12-18T05:20:32;21.83;;;12.02;;
45728;SDS011;31439;53.512;10.206;2022-12-18T05:22:58;20.55;;;11.82;;
45728;SDS011;31439;53.512;10.206;2022-12-18T05:25:24;23.05;;;12.20;;
45728;SDS011;31439;53.512;10.206;2022-12-18T05:27:50;21.67;;;12.10;;
45728;SDS011;31439;53.512;10.206;2022-12-18T05:30:16;21.75;;;12.77;;
45728;SDS011;31439;53.512;10.206;2022-12-18T05:32:42;18.30;;;11.40;;
45728;SDS011;31439;53.512;10.206;2022-12-18T05:35:09;23.20;;;12.13;;
45728;SDS011;31439;53.512;10.206;2022-12-18T05:37:36;20.27;;;12.25;;
45728;SDS011;31439;53.512;10.206;2022-12-18T05:40:03;22.30;;;12.25;;
45728;SDS011;31439;53.512;10.206;2022-12-18T05:42:30;22.60;;;12.23;;
45728;SDS011;31439;53.512;10.206;2022-12-18T05:44:56;18.85;;;11.05;;
45728;SDS011;31439;53.512;10.206;2022-12-18T05:47:22;25.17;;;12.35;;
45728;SDS011;31439;53.512;10.206;2022-12-18T05:49:48;19.95;;;12.23;;
45728;SDS011;31439;53.512;10.206;2022-12-18T05:52:14;22.52;;;11.10;;
45728;SDS011;31439;53.512;10.206;2022-12-18T05:54:40;21.25;;;12.15;;
45728;SDS011;31439;53.512;10.206;2022-12-18T05:57:06;26.27;;;12.85;;
45728;SDS011;31439;53.512;10.206;2022-12-18T05:59:32;23.20;;;12.63;;
45728;SDS011;31439;53.512;10.206;2022-12-18T06:01:58;21.75;;;12.00;;
45728;SDS011;31439;53.512;10.206;2022-12-18T06:04:26;21.70;;;12.70;;
45728;SDS011;31439;53.512;10.206;2022-12-18T06:06:52;18.63;;;12.48;;
45728;SDS011;31439;53.512;10.206;2022-12-18T06:09:18;24.63;;;13.00;;
45728;SDS011;31439;53.512;10.206;2022-12-18T06:11:44;21.08;;;12.50;;
45728;SDS011;31439;53.512;10.206;2022-12-18T06:14:10;23.48;;;13.55;;
45728;SDS011;31439;53.512;10.206;2022-12-18T06:16:36;20.67;;;12.32;;
45728;SDS011;31439;53.512;10.206;2022-12-18T06:19:03;21.33;;;12.27;;
45728;SDS011;31439;53.512;10.206;2022-12-18T06:21:29;24.83;;;12.95;;
45728;SDS011;31439;53.512;10.206;2022-12-18T06:23:55;19.90;;;12.35;;
45728;SDS011;31439;53.512;10.206;2022-12-18T06:26:21;24.40;;;12.73;;
45728;SDS011;31439;53.512;10.206;2022-12-18T06:28:47;25.88;;;13.27;;
45728;SDS011;31439;53.512;10.206;2022-12-18T06:31:13;24.33;;;12.77;;
45728;SDS011;31439;53.512;10.206;2022-12-18T06:33:39;20.85;;;12.75;;
45728;SDS011;31439;53.512;10.206;2022-12-18T06:36:07;21.88;;;13.23;;
45728;SDS011;31439;53.512;10.206;2022-12-18T06:38:33;25.60;;;13.43;;
45728;SDS011;31439;53.512;10.206;2022-12-18T06:41:00;23.15;;;13.75;;
45728;SDS011;31439;53.512;10.206;2022-12-18T06:43:26;23.48;;;12.88;;
45728;SDS011;31439;53.512;10.206;2022-12-18T06:45:57;26.35;;;13.55;;
45728;SDS011;31439;53.512;10.206;2022-12-18T06:48:26;21.02;;;13.52;;
45728;SDS011;31439;53.512;10.206;2022-12-18T06:50:53;21.92;;;13.32;;
45728;SDS011;31439;53.512;10.206;2022-12-18T06:53:19;26.60;;;13.50;;
45728;SDS011;31439;53.512;10.206;2022-12-18T06:55:45;25.58;;;14.48;;
45728;SDS011;31439;53.512;10.206;2022-12-18T06:58:11;23.48;;;13.35;;
45728;SDS011;31439;53.512;10.206;2022-12-18T07:00:37;23.10;;;14.00;;
45728;SDS011;31439;53.512;10.206;2022-12-18T07:03:03;24.67;;;13.25;;
45728;SDS011;31439;53.512;10.206;2022-12-18T07:05:29;25.35;;;13.52;;
45728;SDS011;31439;53.512;10.206;2022-12-18T07:07:55;26.85;;;12.95;;
45728;SDS011;31439;53.512;10.206;2022-12-18T07:10:21;27.20;;;13.40;;
45728;SDS011;31439;53.512;10.206;2022-12-18T07:12:47;29.83;;;15.23;;
45728;SDS011;31439;53.512;10.206;2022-12-18T07:15:14;22.60;;;13.02;;
45728;SDS011;31439;53.512;10.206;2022-12-18T07:17:40;24.00;;;13.02;;
45728;SDS011;31439;53.512;10.206;2022-12-18T07:20:07;23.58;;;12.57;;
45728;SDS011;31439;53.512;10.206;2022-12-18T07:22:33;25.27;;;13.75;;
45728;SDS011;31439;53.512;10.206;2022-12-18T07:24:59;23.13;;;13.25;;
45728;SDS011;31439;53.512;10.206;2022-12-18T07:27:25;23.65;;;13.68;;
45728;SDS011;31439;53.512;10.206;2022-12-18T07:29:51;24.73;;;13.25;;
45728;SDS011;31439;53.512;10.206;2022-12-18T07:32:17;22.90;;;12.75;;
45728;SDS011;31439;53.512;10.206;2022-12-18T07:34:43;22.63;;;12.60;;
45728;SDS011;31439;53.512;10.206;2022-12-18T07:37:09;25.00;;;14.35;;
45728;SDS011;31439;53.512;10.206;2022-12-18T07:39:35;22.25;;;13.63;;
45728;SDS011;31439;53.512;10.206;2022-12-18T07:42:01;20.05;;;12.57;;
45728;SDS011;31439;53.512;10.206;2022-12-18T07:44:45;25.77;;;12.63;;
45728;SDS011;31439;53.512;10.206;2022-12-18T07:47:11;21.55;;;12.05;;
45728;SDS011;31439;53.512;10.206;2022-12-18T07:49:37;23.30;;;13.25;;
45728;SDS011;31439;53.512;10.206;2022-12-18T07:52:03;23.45;;;12.40;;
45728;SDS011;31439;53.512;10.206;2022-12-18T07:54:29;23.95;;;13.30;;
45728;SDS011;31439;53.512;10.206;2022-12-18T07:56:55;21.33;;;11.75;;
45728;SDS011;31439;53.512;10.206;2022-12-18T08:22:42;23.85;;;12.57;;
45728;SDS011;31439;53.512;10.206;2022-12-18T08:25:08;24.50;;;13.18;;
45728;SDS011;31439;53.512;10.206;2022-12-18T08:27:34;25.10;;;12.38;;
45728;SDS011;31439;53.512;10.206;2022-12-18T08:30:03;24.92;;;12.65;;
45728;SDS011;31439;53.512;10.206;2022-12-18T08:32:32;26.00;;;12.93;;
45728;SDS011;31439;53.512;10.206;2022-12-18T08:34:58;22.52;;;12.30;;
45728;SDS011;31439;53.512;10.206;2022-12-18T08:37:24;24.48;;;12.75;;
45728;SDS011;31439;53.512;10.206;2022-12-18T08:39:50;23.42;;;13.15;;
45728;SDS011;31439;53.512;10.206;2022-12-18T08:42:16;24.75;;;13.25;;
45728;SDS011;31439;53.512;10.206;2022-12-18T08:45:01;22.42;;;12.80;;
45728;SDS011;31439;53.512;10.206;2022-12-18T08:47:27;25.50;;;12.93;;
45728;SDS011;31439;53.512;10.206;2022-12-18T08:49:54;23.27;;;12.45;;
45728;SDS011;31439;53.512;10.206;2022-12-18T08:52:20;22.40;;;12.93;;
45728;SDS011;31439;53.512;10.206;2022-12-18T08:54:46;25.33;;;12.98;;
45728;SDS011;31439;53.512;10.206;2022-12-18T08:57:12;21.50;;;12.40;;
45728;SDS011;31439;53.512;10.206;2022-12-18T08:59:38;26.17;;;13.65;;
45728;SDS011;31439;53.512;10.206;2022-12-18T09:02:04;27.13;;;13.32;;
45728;SDS011;31439;53.512;10.206;2022-12-18T09:04:30;26.70;;;13.63;;
45728;SDS011;31439;53.512;10.206;2022-12-18T09:06:56;22.60;;;12.90;;
45728;SDS011;31439;53.512;10.206;2022-12-18T09:09:22;25.95;;;13.55;;
45728;SDS011;31439;53.512;10.206;2022-12-18T09:11:48;27.58;;;13.88;;
45728;SDS011;31439;53.512;10.206;2022-12-18T09:14:14;29.50;;;13.07;;
45728;SDS011;31439;53.512;10.206;2022-12-18T09:16:40;23.45;;;13.02;;
45728;SDS011;31439;53.512;10.206;2022-12-18T09:19:06;24.27;;;13.40;;
45728;SDS011;31439;53.512;10.206;2022-12-18T09:21:33;22.25;;;12.60;;
45728;SDS011;31439;53.512;10.206;2022-12-18T09:24:04;21.50;;;11.95;;
45728;SDS011;31439;53.512;10.206;2022-12-18T09:26:30;25.13;;;13.73;;
45728;SDS011;31439;53.512;10.206;2022-12-18T09:28:56;26.45;;;12.50;;
45728;SDS011;31439;53.512;10.206;2022-12-18T09:31:23;25.95;;;13.57;;
45728;SDS011;31439;53.512;10.206;2022-12-18T09:33:50;24.63;;;13.57;;
45728;SDS011;31439;53.512;10.206;2022-12-18T09:36:16;24.55;;;12.75;;
45728;SDS011;31439;53.512;10.206;2022-12-18T09:38:43;23.80;;;12.98;;
45728;SDS011;31439;53.512;10.206;2022-12-18T09:43:43;28.30;;;14.10;;
45728;SDS011;31439;53.512;10.206;2022-12-18T09:46:11;25.13;;;14.05;;
45728;SDS011;31439;53.512;10.206;2022-12-18T09:48:42;24.70;;;13.48;;
45728;SDS011;31439;53.512;10.206;2022-12-18T09:51:19;23.25;;;13.70;;
45728;SDS011;31439;53.512;10.206;2022-12-18T09:53:50;25.60;;;13.15;;
45728;SDS011;31439;53.512;10.206;2022-12-18T09:56:18;24.05;;;13.60;;
45728;SDS011;31439;53.512;10.206;2022-12-18T09:58:50;24.95;;;13.73;;
45728;SDS011;31439;53.512;10.206;2022-12-18T10:01:21;23.88;;;13.45;;
45728;SDS011;31439;53.512;10.206;2022-12-18T10:03:48;25.80;;;14.02;;
45728;SDS011;31439;53.512;10.206;2022-12-18T10:06:23;24.52;;;13.88;;
45728;SDS011;31439;53.512;10.206;2022-12-18T10:11:39;22.88;;;13.05;;
45728;SDS011;31439;53.512;10.206;2022-12-18T10:14:13;26.98;;;13.52;;
45728;SDS011;31439;53.512;10.206;2022-12-18T10:24:21;25.90;;;13.48;;
45728;SDS011;31439;53.512;10.206;2022-12-18T10:26:50;24.80;;;13.68;;
45728;SDS011;31439;53.512;10.206;2022-12-18T10:29:17;27.77;;;14.25;;
45728;SDS011;31439;53.512;10.206;2022-12-18T10:31:43;26.17;;;14.63;;
45728;SDS011;31439;53.512;10.206;2022-12-18T10:34:10;25.77;;;14.23;;
45728;SDS011;31439;53.512;10.206;2022-12-18T10:36:39;27.23;;;13.50;;
45728;SDS011;31439;53.512;10.206;2022-12-18T10:39:15;27.05;;;13.52;;
45728;SDS011;31439;53.512;10.206;2022-12-18T10:41:41;27.15;;;13.75;;
45728;SDS011;31439;53.512;10.206;2022-12-18T10:44:23;26.02;;;13.95;;
45728;SDS011;31439;53.512;10.206;2022-12-18T10:47:02;22.38;;;13.10;;
45728;SDS011;31439;53.512;10.206;2022-12-18T10:49:29;22.90;;;13.25;;
45728;SDS011;31439;53.512;10.206;2022-12-18T10:54:45;27.65;;;14.48;;
45728;SDS011;31439;53.512;10.206;2022-12-18T10:57:16;28.98;;;15.27;;
45728;SDS011;31439;53.512;10.206;2022-12-18T10:59:50;27.67;;;15.18;;
45728;SDS011;31439;53.512;10.206;2022-12-18T11:04:57;27.17;;;14.38;;
45728;SDS011;31439;53.512;10.206;2022-12-18T11:07:23;29.25;;;15.32;;
45728;SDS011;31439;53.512;10.206;2022-12-18T11:09:59;29.75;;;15.13;;
45728;SDS011;31439;53.512;10.206;2022-12-18T11:12:28;27.00;;;14.68;;
45728;SDS011;31439;53.512;10.206;2022-12-18T11:14:57;29.90;;;16.00;;
45728;SDS011;31439;53.512;10.206;2022-12-18T11:17:28;25.75;;;14.25;;
45728;SDS011;31439;53.512;10.206;2022-12-18T11:19:56;25.80;;;14.75;;
45728;SDS011;31439;53.512;10.206;2022-12-18T11:24:56;26.25;;;14.50;;
45728;SDS011;31439;53.512;10.206;2022-12-18T11:27:23;27.20;;;14.10;;
45728;SDS011;31439;53.512;10.206;2022-12-18T11:29:49;25.35;;;14.15;;
45728;SDS011;31439;53.512;10.206;2022-12-18T11:35:10;27.38;;;13.63;;
45728;SDS011;31439;53.512;10.206;2022-12-18T11:37:37;26.05;;;14.10;;
45728;SDS011;31439;53.512;10.206;2022-12-18T11:40:10;29.95;;;15.93;;
45728;SDS011;31439;53.512;10.206;2022-12-18T11:42:50;24.65;;;13.88;;
45728;SDS011;31439;53.512;10.206;2022-12-18T11:45:28;26.67;;;14.18;;
45728;SDS011;31439;53.512;10.206;2022-12-18T11:48:01;26.75;;;14.52;;
45728;SDS011;31439;53.512;10.206;2022-12-18T11:50:31;25.70;;;14.07;;
45728;SDS011;31439;53.512;10.206;2022-12-18T11:52:59;24.63;;;13.50;;
45728;SDS011;31439;53.512;10.206;2022-12-18T12:00:22;26.45;;;14.18;;
45728;SDS011;31439;53.512;10.206;2022-12-18T12:05:24;27.38;;;13.52;;
45728;SDS011;31439;53.512;10.206;2022-12-18T12:08:03;25.83;;;13.63;;
45728;SDS011;31439;53.512;10.206;2022-12-18T12:18:13;22.63;;;12.48;;
45728;SDS011;31439;53.512;10.206;2022-12-18T12:33:48;27.67;;;14.43;;
45728;SDS011;31439;53.512;10.206;2022-12-18T12:36:36;25.20;;;13.65;;
45728;SDS011;31439;53.512;10.206;2022-12-18T12:39:06;27.48;;;14.55;;
45728;SDS011;31439;53.512;10.206;2022-12-18T12:41:36;22.95;;;13.32;;
45728;SDS011;31439;53.512;10.206;2022-12-18T12:50:51;26.77;;;13.05;;
45728;SDS011;31439;53.512;10.206;2022-12-18T12:53:21;26.73;;;13.10;;
45728;SDS011;31439;53.512;10.206;2022-12-18T12:55:48;27.13;;;13.30;;
45728;SDS011;31439;53.512;10.206;2022-12-18T12:58:17;24.63;;;12.85;;
45728;SDS011;31439;53.512;10.206;2022-12-18T13:03:27;27.38;;;13.93;;
45728;SDS011;31439;53.512;10.206;2022-12-18T13:12:12;27.27;;;13.45;;
45728;SDS011;31439;53.512;10.206;2022-12-18T13:15:11;23.85;;;12.77;;
45728;SDS011;31439;53.512;10.206;2022-12-18T13:17:39;26.23;;;12.98;;
45728;SDS011;31439;53.512;10.206;2022-12-18T13:20:07;26.27;;;12.43;;
45728;SDS011;31439;53.512;10.206;2022-12-18T13:28:12;27.70;;;12.85;;
45728;SDS011;31439;53.512;10.206;2022-12-18T13:38:20;29.65;;;13.88;;
45728;SDS011;31439;53.512;10.206;2022-12-18T13:40:55;26.15;;;13.77;;
45728;SDS011;31439;53.512;10.206;2022-12-18T13:43:26;29.33;;;13.50;;
45728;SDS011;31439;53.512;10.206;2022-12-18T13:48:38;29.25;;;13.75;;
45728;SDS011;31439;53.512;10.206;2022-12-18T13:51:09;29.75;;;13.93;;
45728;SDS011;31439;53.512;10.206;2022-12-18T13:53:36;29.73;;;13.20;;
45728;SDS011;31439;53.512;10.206;2022-12-18T13:56:04;27.55;;;13.32;;
45728;SDS011;31439;53.512;10.206;2022-12-18T13:58:31;33.25;;;14.80;;
45728;SDS011;31439;53.512;10.206;2022-12-18T14:00:58;29.45;;;14.07;;
45728;SDS011;31439;53.512;10.206;2022-12-18T14:03:27;30.73;;;13.85;;
45728;SDS011;31439;53.512;10.206;2022-12-18T14:06:04;29.90;;;13.55;;
45728;SDS011;31439;53.512;10.206;2022-12-18T14:08:41;32.10;;;14.73;;
45728;SDS011;31439;53.512;10.206;2022-12-18T14:11:17;31.15;;;15.35;;
45728;SDS011;31439;53.512;10.206;2022-12-18T14:13:44;30.13;;;14.85;;
45728;SDS011;31439;53.512;10.206;2022-12-18T14:16:13;28.27;;;13.73;;
45728;SDS011;31439;53.512;10.206;2022-12-18T14:18:48;33.47;;;15.50;;
45728;SDS011;31439;53.512;10.206;2022-12-18T14:21:22;34.55;;;16.20;;
45728;SDS011;31439;53.512;10.206;2022-12-18T14:23:49;36.38;;;16.10;;
45728;SDS011;31439;53.512;10.206;2022-12-18T14:26:28;32.15;;;15.45;;
45728;SDS011;31439;53.512;10.206;2022-12-18T14:28:57;35.28;;;15.95;;
45728;SDS011;31439;53.512;10.206;2022-12-18T14:31:26;35.63;;;15.57;;
45728;SDS011;31439;53.512;10.206;2022-12-18T14:33:53;36.78;;;16.02;;
45728;SDS011;31439;53.512;10.206;2022-12-18T14:36:23;32.58;;;15.63;;
45728;SDS011;31439;53.512;10.206;2022-12-18T14:38:53;32.90;;;15.73;;
45728;SDS011;31439;53.512;10.206;2022-12-18T14:41:20;33.63;;;15.48;;
45728;SDS011;31439;53.512;10.206;2022-12-18T14:43:48;35.53;;;16.60;;
45728;SDS011;31439;53.512;10.206;2022-12-18T14:46:28;33.70;;;16.23;;
45728;SDS011;31439;53.512;10.206;2022-12-18T14:48:54;37.13;;;17.27;;
45728;SDS011;31439;53.512;10.206;2022-12-18T14:51:21;35.60;;;16.67;;
45728;SDS011;31439;53.512;10.206;2022-12-18T14:53:49;35.45;;;15.85;;
45728;SDS011;31439;53.512;10.206;2022-12-18T14:56:26;36.95;;;16.15;;
45728;SDS011;31439;53.512;10.206;2022-12-18T15:09:22;31.73;;;15.95;;
45728;SDS011;31439;53.512;10.206;2022-12-18T15:11:48;35.25;;;15.63;;
45728;SDS011;31439;53.512;10.206;2022-12-18T15:16:57;33.83;;;15.32;;
45728;SDS011;31439;53.512;10.206;2022-12-18T15:19:27;34.17;;;15.68;;
45728;SDS011;31439;53.512;10.206;2022-12-18T15:21:56;32.75;;;15.85;;
45728;SDS011;31439;53.512;10.206;2022-12-18T15:24:25;33.17;;;15.32;;
45728;SDS011;31439;53.512;10.206;2022-12-18T15:26:52;36.28;;;17.00;;
45728;SDS011;31439;53.512;10.206;2022-12-18T15:29:22;31.00;;;11.25;;
45728;SDS011;31439;53.512;10.206;2022-12-18T15:32:01;40.38;;;18.10;;
45728;SDS011;31439;53.512;10.206;2022-12-18T15:34:28;37.50;;;15.95;;
45728;SDS011;31439;53.512;10.206;2022-12-18T15:36:54;32.70;;;14.43;;
45728;SDS011;31439;53.512;10.206;2022-12-18T15:39:20;36.30;;;15.63;;
45728;SDS011;31439;53.512;10.206;2022-12-18T15:41:46;34.38;;;16.00;;
45728;SDS011;31439;53.512;10.206;2022-12-18T15:44:31;36.50;;;16.95;;
45728;SDS011;31439;53.512;10.206;2022-12-18T15:46:57;39.97;;;16.88;;
45728;SDS011;31439;53.512;10.206;2022-12-18T15:49:23;34.90;;;17.48;;
45728;SDS011;31439;53.512;10.206;2022-12-18T15:51:52;40.85;;;18.35;;
45728;SDS011;31439;53.512;10.206;2022-12-18T15:54:19;37.45;;;17.65;;
45728;SDS011;31439;53.512;10.206;2022-12-18T15:57:08;37.17;;;17.15;;
45728;SDS011;31439;53.512;10.206;2022-12-18T15:59:53;36.78;;;17.05;;
45728;SDS011;31439;53.512;10.206;2022-12-18T16:02:21;38.58;;;17.50;;
45728;SDS011;31439;53.512;10.206;2022-12-18T16:05:00;40.15;;;17.17;;
45728;SDS011;31439;53.512;10.206;2022-12-18T16:07:26;36.53;;;16.58;;
45728;SDS011;31439;53.512;10.206;2022-12-18T16:09:52;37.53;;;16.88;;
45728;SDS011;31439;53.512;10.206;2022-12-18T16:12:20;37.25;;;16.73;;
45728;SDS011;31439;53.512;10.206;2022-12-18T16:14:49;36.97;;;16.80;;
45728;SDS011;31439;53.512;10.206;2022-12-18T16:17:15;35.53;;;17.08;;
45728;SDS011;31439;53.512;10.206;2022-12-18T16:19:43;38.00;;;17.05;;
45728;SDS011;31439;53.512;10.206;2022-12-18T16:24:54;37.33;;;17.42;;
45728;SDS011;31439;53.512;10.206;2022-12-18T16:27:24;36.92;;;17.27;;
45728;SDS011;31439;53.512;10.206;2022-12-18T16:29:53;35.97;;;16.65;;
45728;SDS011;31439;53.512;10.206;2022-12-18T16:32:20;34.60;;;16.33;;
45728;SDS011;31439;53.512;10.206;2022-12-18T16:34:46;34.30;;;16.00;;
45728;SDS011;31439;53.512;10.206;2022-12-18T16:37:13;31.73;;;15.38;;
45728;SDS011;31439;53.512;10.206;2022-12-18T16:39:40;32.70;;;16.65;;
45728;SDS011;31439;53.512;10.206;2022-12-18T16:44:39;37.65;;;17.05;;
45728;SDS011;31439;53.512;10.206;2022-12-18T16:47:05;36.08;;;17.05;;
45728;SDS011;31439;53.512;10.206;2022-12-18T16:49:31;38.30;;;17.00;;
45728;SDS011;31439;53.512;10.206;2022-12-18T16:55:20;33.22;;;15.57;;